Time;durP1;ratioP1;P1;durP2;ratioP2;P2;SDS_P1;SDS_P2;PMS_P1;PMS_P2;Temp;Humidity;BMP_temperature;BMP_pressure;BME280_temperature;BME280_humidity;BME280_pressure;Samples;Min_cycle;Max_cycle;Signal;HPM_P1;HPM_P2
2023/11/30 00:00:58;;;;;;;18.97;15.37;;;7.40;59.60;;;;;;5016146;28;20273;-83
2023/11/30 00:03:23;;;;;;;18.73;15.67;;;7.30;59.10;;;;;;5014411;28;20174;-83
2023/11/30 00:05:49;;;;;;;18.50;16.50;;;7.30;60.20;;;;;;5012678;28;20669;-83
2023/11/30 00:08:15;;;;;;;19.57;16.13;;;7.30;60.00;;;;;;5015305;28;20584;-81
2023/11/30 00:10:41;;;;;;;20.60;16.23;;;7.40;59.80;;;;;;5014882;28;20173;-83
2023/11/30 00:13:06;;;;;;;18.90;16.67;;;7.40;59.40;;;;;;5015162;28;20540;-83
2023/11/30 00:15:32;;;;;;;18.40;15.90;;;7.40;59.10;;;;;;5014556;28;20574;-83
2023/11/30 00:17:57;;;;;;;19.67;15.73;;;7.30;60.10;;;;;;5014221;28;20289;-82
2023/11/30 00:20:23;;;;;;;18.60;16.43;;;7.40;60.50;;;;;;5014672;28;20257;-83
2023/11/30 00:22:49;;;;;;;18.30;16.03;;;7.40;59.80;;;;;;5018719;28;20200;-83
2023/11/30 00:25:14;;;;;;;18.90;16.53;;;7.40;59.00;;;;;;5016812;28;20170;-83
2023/11/30 00:27:40;;;;;;;17.50;15.60;;;7.30;58.50;;;;;;5014834;28;20214;-82
2023/11/30 00:30:06;;;;;;;19.17;17.13;;;7.20;59.20;;;;;;5013256;28;20182;-82
2023/11/30 00:32:32;;;;;;;23.40;19.87;;;7.30;60.60;;;;;;5013402;28;20257;-83
2023/11/30 00:34:58;;;;;;;23.67;20.17;;;7.30;60.20;;;;;;5021800;28;20285;-84
2023/11/30 00:37:23;;;;;;;19.87;17.73;;;7.30;61.10;;;;;;5018811;28;20730;-83
2023/11/30 00:39:50;;;;;;;21.47;17.87;;;7.30;61.30;;;;;;5016744;28;20684;-84
2023/11/30 00:42:16;;;;;;;21.30;18.17;;;7.30;60.20;;;;;;5015064;28;20178;-83
2023/11/30 00:44:42;;;;;;;20.13;17.33;;;7.40;60.20;;;;;;5014846;28;20602;-85
2023/11/30 00:47:07;;;;;;;21.37;16.90;;;7.30;59.70;;;;;;5024562;28;20202;-84
2023/11/30 00:49:33;;;;;;;24.00;18.13;;;7.20;61.00;;;;;;5038843;28;20181;-83
2023/11/30 00:51:59;;;;;;;21.23;16.90;;;7.20;62.80;;;;;;5028859;28;20178;-84
2023/11/30 00:54:26;;;;;;;21.80;17.57;;;7.20;66.30;;;;;;5021863;28;20610;-84
2023/11/30 00:56:52;;;;;;;21.43;17.23;;;7.20;65.20;;;;;;5017267;28;20197;-84
2023/11/30 00:59:18;;;;;;;19.60;17.37;;;7.10;64.30;;;;;;5013364;28;20560;-82
2023/11/30 01:01:43;;;;;;;20.57;17.53;;;7.00;67.60;;;;;;5013640;28;20189;-83
2023/11/30 01:04:09;;;;;;;22.90;18.13;;;6.80;70.60;;;;;;5014850;28;20248;-83
2023/11/30 01:06:36;;;;;;;21.00;17.93;;;7.00;73.40;;;;;;5026097;28;20254;-83
2023/11/30 01:09:01;;;;;;;22.83;17.83;;;7.00;67.40;;;;;;5034014;28;20174;-83
2023/11/30 01:11:27;;;;;;;21.60;18.23;;;7.00;64.60;;;;;;5036238;28;20189;-82
2023/11/30 01:13:53;;;;;;;24.37;18.57;;;7.10;59.70;;;;;;5038112;28;20230;-80
2023/11/30 01:16:19;;;;;;;21.93;18.73;;;7.00;58.10;;;;;;5029249;28;20232;-83
2023/11/30 01:18:44;;;;;;;19.97;17.83;;;7.00;58.90;;;;;;5018043;28;20202;-82
2023/11/30 01:21:10;;;;;;;25.07;18.77;;;6.90;61.10;;;;;;5013895;28;20177;-83
2023/11/30 01:23:35;;;;;;;26.77;19.80;;;6.80;64.10;;;;;;5014355;28;20197;-82
2023/11/30 01:26:02;;;;;;;21.90;17.67;;;6.70;67.60;;;;;;5014916;28;20166;-83
2023/11/30 01:28:28;;;;;;;21.57;18.43;;;6.50;76.20;;;;;;5013801;28;20166;-85
2023/11/30 01:30:53;;;;;;;22.07;18.77;;;6.30;85.50;;;;;;5014237;28;20523;-83
2023/11/30 01:33:20;;;;;;;24.27;18.87;;;6.30;91.10;;;;;;5019130;28;20166;-82
2023/11/30 01:35:47;;;;;;;21.60;18.97;;;6.20;93.40;;;;;;5022711;28;20233;-83
2023/11/30 01:38:16;;;;;;;24.03;18.43;;;6.20;95.80;;;;;;5024921;28;20166;-83
2023/11/30 01:40:44;;;;;;;22.93;17.80;;;6.20;98.00;;;;;;5023414;28;20198;-81
2023/11/30 01:43:10;;;;;;;21.00;17.30;;;6.30;99.10;;;;;;5023864;28;20167;-82
2023/11/30 01:45:37;;;;;;;22.07;18.50;;;6.20;99.00;;;;;;5028536;28;20158;-82
2023/11/30 01:48:04;;;;;;;21.80;17.20;;;6.20;99.80;;;;;;5025661;28;20217;-82
2023/11/30 01:50:32;;;;;;;20.20;17.17;;;6.10;99.90;;;;;;5028897;28;20189;-83
2023/11/30 01:53:00;;;;;;;19.80;17.13;;;6.10;99.90;;;;;;5026681;28;20174;-85
2023/11/30 01:55:27;;;;;;;22.77;17.67;;;6.00;99.90;;;;;;5028195;28;20173;-82
2023/11/30 01:57:53;;;;;;;24.30;18.73;;;6.10;99.90;;;;;;5026422;28;20200;-82
2023/11/30 02:00:19;;;;;;;21.80;18.87;;;6.30;99.90;;;;;;5021570;28;20174;-83
2023/11/30 02:02:46;;;;;;;20.63;17.97;;;6.20;99.90;;;;;;5020619;28;20673;-82
2023/11/30 02:05:13;;;;;;;20.30;18.00;;;6.30;99.90;;;;;;5017997;28;20178;-83
2023/11/30 02:07:39;;;;;;;22.17;19.70;;;6.40;99.90;;;;;;5015542;28;20210;-82
2023/11/30 02:10:06;;;;;;;23.37;17.87;;;6.40;99.90;;;;;;5020703;28;20182;-82
2023/11/30 02:12:32;;;;;;;22.17;18.70;;;6.30;99.90;;;;;;5021868;28;20190;-82
2023/11/30 02:15:03;;;;;;;24.27;19.70;;;6.20;99.90;;;;;;5026330;28;20167;-82
2023/11/30 02:17:31;;;;;;;22.70;18.57;;;6.20;99.90;;;;;;5029164;28;20239;-80
2023/11/30 02:19:57;;;;;;;21.03;16.53;;;6.00;99.90;;;;;;5030374;28;20190;-82
2023/11/30 02:22:26;;;;;;;24.60;18.70;;;5.80;99.90;;;;;;5015386;28;20181;-81
2023/11/30 02:24:53;;;;;;;21.83;17.73;;;5.90;99.90;;;;;;5032583;28;20170;-84
2023/11/30 02:27:18;;;;;;;24.77;19.37;;;6.00;99.90;;;;;;5031117;28;20209;-83
2023/11/30 02:29:44;;;;;;;24.60;18.27;;;6.10;99.90;;;;;;5029416;28;20170;-81
2023/11/30 02:32:10;;;;;;;22.57;18.07;;;6.20;99.90;;;;;;5028094;28;20205;-83
2023/11/30 02:34:37;;;;;;;23.03;18.47;;;6.30;99.90;;;;;;5029736;28;20181;-83
2023/11/30 02:37:03;;;;;;;22.07;19.67;;;6.40;99.90;;;;;;5029999;28;20190;-83
2023/11/30 02:39:28;;;;;;;23.83;19.17;;;6.50;99.90;;;;;;5030843;28;20170;-82
2023/11/30 02:41:54;;;;;;;22.33;18.63;;;6.50;99.90;;;;;;5030496;28;20196;-83
2023/11/30 02:44:21;;;;;;;22.17;18.23;;;6.50;99.90;;;;;;5030086;28;20167;-82
2023/11/30 02:46:49;;;;;;;22.23;18.40;;;6.40;99.90;;;;;;5030422;28;20198;-82
2023/11/30 02:49:24;;;;;;;22.03;18.03;;;6.10;99.90;;;;;;5029188;28;20252;-81
2023/11/30 02:51:51;;;;;;;26.33;18.23;;;6.00;99.90;;;;;;5025976;28;20173;-83
2023/11/30 02:54:27;;;;;;;20.73;18.07;;;6.00;99.90;;;;;;5028831;28;20336;-82
2023/11/30 02:56:59;;;;;;;22.40;18.07;;;5.80;99.90;;;;;;5028456;28;20170;-82
2023/11/30 02:59:36;;;;;;;20.83;17.83;;;5.80;99.90;;;;;;5027789;28;20216;-82
2023/11/30 03:02:02;;;;;;;21.17;17.63;;;5.80;99.90;;;;;;5024577;28;20174;-84
2023/11/30 03:04:29;;;;;;;23.50;17.93;;;5.80;99.90;;;;;;5021985;28;20174;-83
2023/11/30 03:06:56;;;;;;;22.13;17.70;;;5.70;99.90;;;;;;5035647;28;20205;-82
2023/11/30 03:09:22;;;;;;;22.57;17.80;;;5.70;99.90;;;;;;5038195;28;20169;-81
2023/11/30 03:11:47;;;;;;;21.93;18.70;;;5.50;99.90;;;;;;5033478;28;20234;-82
2023/11/30 03:14:16;;;;;;;23.17;17.03;;;5.50;99.90;;;;;;5025126;28;20190;-81
2023/11/30 03:16:42;;;;;;;21.87;18.13;;;5.50;99.90;;;;;;5028306;28;20210;-82
2023/11/30 03:19:07;;;;;;;25.17;18.67;;;5.40;99.90;;;;;;5027663;28;20217;-83
2023/11/30 03:21:35;;;;;;;23.03;19.13;;;5.40;99.90;;;;;;5027396;28;20198;-82
2023/11/30 03:24:01;;;;;;;23.47;19.03;;;5.40;99.90;;;;;;5027510;28;20182;-83
2023/11/30 03:26:27;;;;;;;21.93;18.27;;;5.40;99.90;;;;;;5027764;28;20670;-82
2023/11/30 03:28:54;;;;;;;23.30;19.77;;;5.50;99.90;;;;;;5027442;28;20185;-83
2023/11/30 03:31:20;;;;;;;23.73;19.27;;;5.60;99.90;;;;;;5030778;28;20187;-82
2023/11/30 03:33:46;;;;;;;21.10;18.13;;;5.60;99.90;;;;;;5031371;28;20170;-82
2023/11/30 03:36:12;;;;;;;22.47;18.50;;;5.70;99.90;;;;;;5029908;28;20178;-83
2023/11/30 03:38:40;;;;;;;22.63;18.27;;;5.60;99.90;;;;;;5027763;28;20189;-84
2023/11/30 03:41:09;;;;;;;22.83;18.50;;;5.60;99.90;;;;;;5028798;28;20606;-82
2023/11/30 03:43:35;;;;;;;22.77;18.60;;;5.50;99.90;;;;;;5024040;28;20203;-81
2023/11/30 03:46:04;;;;;;;22.93;18.10;;;5.50;99.90;;;;;;5024282;28;20170;-82
2023/11/30 03:48:29;;;;;;;25.30;19.33;;;5.50;99.90;;;;;;5025151;28;20203;-83
2023/11/30 03:50:58;;;;;;;22.33;17.83;;;5.40;99.90;;;;;;5026807;28;20158;-82
2023/11/30 03:53:25;;;;;;;24.63;18.30;;;5.30;99.90;;;;;;5029964;28;20198;-82
2023/11/30 03:55:51;;;;;;;21.57;18.03;;;5.30;99.90;;;;;;5033351;28;20150;-80
2023/11/30 03:58:17;;;;;;;23.90;19.90;;;5.30;99.90;;;;;;5038635;28;20158;-81
2023/11/30 04:00:43;;;;;;;23.67;19.53;;;5.20;99.90;;;;;;5036367;28;20174;-82
2023/11/30 04:03:12;;;;;;;24.60;20.00;;;5.10;99.90;;;;;;5039268;28;20174;-81
2023/11/30 04:05:38;;;;;;;21.97;17.93;;;5.00;99.90;;;;;;5034541;28;20202;-81
2023/11/30 04:08:04;;;;;;;23.43;18.83;;;4.80;99.90;;;;;;5026529;28;20209;-82
2023/11/30 04:10:30;;;;;;;24.17;19.03;;;4.90;99.90;;;;;;5026755;28;20208;-83
2023/11/30 04:13:08;;;;;;;21.33;17.97;;;4.80;99.90;;;;;;5023835;28;20174;-83
2023/11/30 04:15:36;;;;;;;23.53;17.77;;;4.70;99.90;;;;;;5025584;28;20237;-83
2023/11/30 04:18:02;;;;;;;24.13;19.63;;;4.60;99.90;;;;;;5024662;28;20755;-82
2023/11/30 04:20:28;;;;;;;26.33;19.50;;;4.50;99.90;;;;;;5023245;28;20170;-82
2023/11/30 04:22:53;;;;;;;23.80;19.60;;;4.40;99.90;;;;;;5024710;28;20616;-82
2023/11/30 04:25:19;;;;;;;26.87;20.27;;;4.40;99.90;;;;;;5023928;28;20269;-83
2023/11/30 04:27:45;;;;;;;25.57;19.70;;;4.40;99.90;;;;;;5022892;28;20629;-83
2023/11/30 04:30:15;;;;;;;23.60;19.20;;;4.40;99.90;;;;;;5021633;28;20197;-83
2023/11/30 04:32:40;;;;;;;26.40;19.80;;;4.30;99.90;;;;;;5026973;28;20269;-83
2023/11/30 04:35:07;;;;;;;26.17;20.17;;;4.40;99.90;;;;;;5027100;28;20700;-84
2023/11/30 04:37:32;;;;;;;23.87;19.00;;;4.40;99.90;;;;;;5026369;28;20174;-83
2023/11/30 04:39:58;;;;;;;23.10;19.20;;;4.30;99.90;;;;;;5027932;28;20299;-83
2023/11/30 04:42:24;;;;;;;22.50;18.90;;;4.40;99.90;;;;;;5026689;28;20198;-82
2023/11/30 04:44:50;;;;;;;24.00;19.57;;;4.60;99.90;;;;;;5026295;28;20155;-83
2023/11/30 04:47:16;;;;;;;22.67;19.47;;;4.40;99.90;;;;;;5023133;28;20214;-83
2023/11/30 04:49:42;;;;;;;26.33;19.33;;;4.40;99.90;;;;;;5025736;28;20175;-84
2023/11/30 04:52:08;;;;;;;24.80;19.53;;;4.40;99.90;;;;;;5007634;28;20186;-83
2023/11/30 04:54:34;;;;;;;26.50;20.33;;;4.30;99.90;;;;;;5025422;28;20245;-83
2023/11/30 04:57:00;;;;;;;26.43;20.37;;;4.20;99.90;;;;;;5026074;28;20174;-82
2023/11/30 04:59:25;;;;;;;26.30;20.67;;;4.30;99.90;;;;;;5024957;28;20204;-83
2023/11/30 05:01:52;;;;;;;24.50;20.47;;;4.40;99.90;;;;;;5025906;28;20171;-82
2023/11/30 05:04:18;;;;;;;22.17;19.37;;;4.30;99.90;;;;;;5024626;28;20177;-83
2023/11/30 05:06:43;;;;;;;26.20;20.93;;;4.20;99.90;;;;;;5019019;28;20193;-84
2023/11/30 05:09:10;;;;;;;26.17;19.80;;;4.30;99.90;;;;;;5018099;28;20260;-81
2023/11/30 05:11:36;;;;;;;27.80;19.33;;;4.20;99.90;;;;;;5021047;28;20178;-82
2023/11/30 05:14:02;;;;;;;24.27;19.43;;;4.10;99.90;;;;;;5018330;28;20166;-82
2023/11/30 05:16:28;;;;;;;25.20;19.10;;;4.20;99.90;;;;;;5021007;28;20163;-82
2023/11/30 05:18:53;;;;;;;30.47;21.17;;;4.20;99.90;;;;;;5025202;28;20261;-81
2023/11/30 05:21:20;;;;;;;24.40;19.37;;;4.40;99.90;;;;;;5038169;28;20242;-82
2023/11/30 05:23:46;;;;;;;25.60;20.03;;;4.40;99.90;;;;;;5030607;28;20201;-81
2023/11/30 05:26:21;;;;;;;26.07;19.33;;;4.30;99.90;;;;;;5024748;28;20198;-83
2023/11/30 05:28:47;;;;;;;23.40;19.33;;;4.30;99.90;;;;;;5020197;28;20181;-83
2023/11/30 05:31:13;;;;;;;22.87;18.47;;;4.30;99.90;;;;;;5023153;28;20174;-81
2023/11/30 05:33:39;;;;;;;24.03;18.83;;;4.20;99.90;;;;;;5022204;28;20186;-82
2023/11/30 05:36:05;;;;;;;22.07;18.97;;;4.10;99.90;;;;;;5022021;28;20224;-82
2023/11/30 05:38:32;;;;;;;23.97;19.80;;;4.00;99.90;;;;;;5029693;28;20197;-83
2023/11/30 05:40:57;;;;;;;24.60;19.97;;;3.90;99.90;;;;;;5035800;28;20185;-81
2023/11/30 05:43:23;;;;;;;24.83;18.47;;;4.00;99.90;;;;;;5034597;28;20226;-82
2023/11/30 05:45:49;;;;;;;25.37;19.27;;;3.80;99.90;;;;;;5033468;28;20162;-82
2023/11/30 05:48:15;;;;;;;25.57;19.77;;;3.90;99.90;;;;;;5029073;28;20214;-82
2023/11/30 05:50:44;;;;;;;24.90;20.13;;;3.80;99.90;;;;;;5022471;28;20343;-83
2023/11/30 05:53:15;;;;;;;23.90;20.10;;;3.90;99.90;;;;;;5018745;28;20205;-82
2023/11/30 05:55:41;;;;;;;26.20;21.40;;;3.90;99.90;;;;;;5019279;28;20754;-82
2023/11/30 05:58:07;;;;;;;25.60;20.57;;;4.00;99.90;;;;;;5014664;28;20181;-82
2023/11/30 06:00:32;;;;;;;25.63;21.03;;;4.00;99.90;;;;;;5015435;28;20170;-82
2023/11/30 06:02:58;;;;;;;27.33;21.40;;;4.00;99.90;;;;;;5020776;28;20207;-83
2023/11/30 06:05:24;;;;;;;26.23;21.23;;;4.10;99.90;;;;;;5015908;28;20626;-82
2023/11/30 06:07:50;;;;;;;24.97;20.90;;;4.00;99.90;;;;;;5014249;28;20209;-82
2023/11/30 06:10:16;;;;;;;32.07;21.50;;;4.10;99.90;;;;;;5029162;28;20239;-82
2023/11/30 06:12:41;;;;;;;25.37;21.47;;;4.30;99.90;;;;;;5028090;28;20159;-83
2023/11/30 06:15:09;;;;;;;24.83;21.40;;;4.40;99.90;;;;;;5013577;28;20641;-83
2023/11/30 06:17:35;;;;;;;26.73;21.93;;;4.40;99.90;;;;;;5011930;28;20206;-82
2023/11/30 06:20:00;;;;;;;26.97;21.30;;;4.40;99.90;;;;;;5013495;28;20190;-82
2023/11/30 06:22:26;;;;;;;26.03;21.17;;;4.40;99.90;;;;;;5014270;28;20186;-83
2023/11/30 06:24:54;;;;;;;26.70;21.03;;;4.10;99.90;;;;;;5013697;28;20630;-83
2023/11/30 06:27:19;;;;;;;27.63;19.67;;;4.10;99.90;;;;;;5013070;28;20258;-81
2023/11/30 06:29:45;;;;;;;23.67;20.37;;;3.90;99.90;;;;;;5013719;28;20175;-83
2023/11/30 06:32:10;;;;;;;26.90;19.70;;;3.90;99.90;;;;;;5011352;28;20642;-83
2023/11/30 06:34:37;;;;;;;23.50;19.03;;;3.70;99.90;;;;;;5013602;28;20560;-83
2023/11/30 06:37:03;;;;;;;27.03;20.97;;;3.60;99.90;;;;;;5016249;28;20213;-82
2023/11/30 06:39:29;;;;;;;31.73;21.20;;;3.60;99.90;;;;;;5017621;28;20570;-82
2023/11/30 06:41:55;;;;;;;27.50;21.40;;;3.60;99.90;;;;;;5016266;28;20233;-82
2023/11/30 06:44:23;;;;;;;27.40;21.73;;;3.70;99.90;;;;;;5015100;28;20626;-82
2023/11/30 06:46:49;;;;;;;27.27;21.03;;;3.50;99.90;;;;;;5012922;28;20289;-82
2023/11/30 06:49:14;;;;;;;27.87;21.63;;;3.50;99.90;;;;;;5011938;28;20257;-82
2023/11/30 06:51:40;;;;;;;29.40;21.97;;;3.50;99.90;;;;;;5016885;28;20665;-83
2023/11/30 06:54:06;;;;;;;29.27;22.77;;;3.30;99.90;;;;;;5013741;28;20626;-82
2023/11/30 06:56:31;;;;;;;28.17;21.33;;;3.30;99.90;;;;;;5011051;28;20189;-83
2023/11/30 06:58:58;;;;;;;29.67;22.43;;;3.30;99.90;;;;;;5012012;28;20265;-82
2023/11/30 07:01:25;;;;;;;31.73;21.50;;;3.30;99.90;;;;;;5013957;28;20186;-81
2023/11/30 07:03:51;;;;;;;29.27;22.20;;;3.30;99.90;;;;;;5015620;28;20696;-81
2023/11/30 07:06:17;;;;;;;33.73;23.03;;;3.40;99.90;;;;;;5016940;28;20206;-81
2023/11/30 07:08:42;;;;;;;28.97;21.33;;;3.30;99.90;;;;;;5016706;28;20189;-81
2023/11/30 07:11:11;;;;;;;31.97;22.70;;;3.30;99.90;;;;;;5016074;28;20170;-81
2023/11/30 07:13:38;;;;;;;34.63;23.77;;;3.40;99.90;;;;;;5015849;28;20649;-81
2023/11/30 07:16:04;;;;;;;28.93;21.77;;;3.30;99.90;;;;;;5010465;28;20185;-81
2023/11/30 07:18:30;;;;;;;37.97;24.40;;;3.30;99.90;;;;;;5023151;28;20220;-82
2023/11/30 07:20:56;;;;;;;38.57;26.30;;;3.20;99.90;;;;;;5024135;28;20613;-79
2023/11/30 07:23:21;;;;;;;39.87;25.53;;;3.30;99.90;;;;;;5035641;28;20169;-80
2023/11/30 07:25:48;;;;;;;37.07;23.73;;;3.30;99.90;;;;;;5022869;28;20280;-81
2023/11/30 07:28:14;;;;;;;47.80;26.43;;;3.20;99.90;;;;;;5014875;28;20316;-80
2023/11/30 07:30:43;;;;;;;45.10;26.57;;;3.10;99.90;;;;;;5015964;28;20167;-80
2023/11/30 07:33:10;;;;;;;78.30;28.23;;;3.00;99.90;;;;;;5017581;28;20189;-80
2023/11/30 07:35:37;;;;;;;99.80;28.63;;;2.90;99.90;;;;;;5041218;28;20162;-80
2023/11/30 07:38:03;;;;;;;187.50;34.33;;;2.90;99.90;;;;;;5059831;28;20158;-80
2023/11/30 07:40:29;;;;;;;118.93;30.97;;;2.80;99.90;;;;;;5030649;28;21022;-81
2023/11/30 07:42:56;;;;;;;223.90;35.77;;;3.10;99.90;;;;;;5015716;28;20212;-81
2023/11/30 07:45:22;;;;;;;152.33;32.70;;;3.00;99.90;;;;;;5015281;28;20162;-83
2023/11/30 07:47:47;;;;;;;178.87;31.33;;;3.00;99.90;;;;;;5013837;28;20214;-82
2023/11/30 07:50:15;;;;;;;151.30;30.40;;;2.70;99.90;;;;;;5011801;28;20265;-81
2023/11/30 07:52:42;;;;;;;128.57;28.40;;;2.70;99.90;;;;;;5011187;28;20714;-81
2023/11/30 07:55:08;;;;;;;188.97;32.13;;;2.60;99.90;;;;;;5014944;28;20171;-80
2023/11/30 07:57:33;;;;;;;139.83;32.23;;;2.50;99.90;;;;;;5016955;28;20657;-81
2023/11/30 07:59:59;;;;;;;129.07;30.40;;;2.50;99.90;;;;;;5021349;28;20721;-81
2023/11/30 08:02:25;;;;;;;270.10;36.33;;;2.50;99.90;;;;;;5022246;28;20178;-80
2023/11/30 08:04:51;;;;;;;178.90;36.10;;;2.50;99.90;;;;;;5025865;28;20174;-80
2023/11/30 08:07:16;;;;;;;210.13;36.70;;;2.60;99.90;;;;;;5018374;28;20217;-82
2023/11/30 08:09:42;;;;;;;116.17;27.83;;;2.60;99.90;;;;;;5012470;28;20178;-82
2023/11/30 08:12:08;;;;;;;265.63;39.70;;;2.50;99.90;;;;;;5014502;28;20220;-82
2023/11/30 08:14:35;;;;;;;176.90;30.30;;;2.40;99.90;;;;;;5013336;28;20167;-82
2023/11/30 08:17:04;;;;;;;211.57;34.50;;;2.30;99.90;;;;;;5015440;28;20171;-82
2023/11/30 08:19:30;;;;;;;212.33;36.53;;;2.40;99.90;;;;;;5013783;28;20186;-82
2023/11/30 08:21:55;;;;;;;86.27;29.87;;;2.60;99.90;;;;;;5017629;28;20819;-80
2023/11/30 08:24:21;;;;;;;192.90;34.43;;;2.80;99.90;;;;;;5020745;28;20209;-80
2023/11/30 08:26:48;;;;;;;76.63;28.57;;;2.80;99.90;;;;;;5028743;28;20646;-81
2023/11/30 08:29:15;;;;;;;105.87;29.27;;;2.90;99.90;;;;;;5012493;28;20581;-80
2023/11/30 08:31:41;;;;;;;100.43;29.50;;;2.70;99.90;;;;;;5018317;28;20177;-82
2023/11/30 08:34:06;;;;;;;142.67;33.50;;;2.80;99.90;;;;;;5017435;28;20174;-80
2023/11/30 08:36:32;;;;;;;228.83;36.60;;;2.90;99.90;;;;;;5014765;28;20196;-82
2023/11/30 08:38:58;;;;;;;219.00;35.93;;;3.00;99.90;;;;;;5013844;28;20185;-81
2023/11/30 08:41:23;;;;;;;294.13;41.27;;;3.00;99.90;;;;;;5015681;28;20172;-82
2023/11/30 08:43:49;;;;;;;173.53;33.03;;;3.00;99.90;;;;;;5020588;28;20582;-81
2023/11/30 08:46:15;;;;;;;229.03;39.17;;;3.40;99.90;;;;;;5018232;28;20190;-81
2023/11/30 08:48:40;;;;;;;161.43;33.27;;;3.30;99.90;;;;;;5017270;28;20178;-80
2023/11/30 08:51:07;;;;;;;93.97;30.13;;;3.30;99.90;;;;;;5011973;28;20232;-81
2023/11/30 08:53:33;;;;;;;101.50;31.67;;;3.40;99.90;;;;;;5013426;28;20555;-80
2023/11/30 08:55:59;;;;;;;97.63;29.07;;;3.40;99.90;;;;;;5016790;28;20191;-80
2023/11/30 08:58:25;;;;;;;60.03;26.07;;;3.40;99.90;;;;;;5030623;28;20181;-80
2023/11/30 09:00:51;;;;;;;50.23;25.27;;;3.40;99.90;;;;;;5031688;28;20236;-81
2023/11/30 09:03:18;;;;;;;73.47;23.53;;;3.20;99.90;;;;;;5031786;28;20174;-82
2023/11/30 09:05:44;;;;;;;68.53;22.03;;;2.90;99.90;;;;;;5033668;28;20221;-81
2023/11/30 09:08:10;;;;;;;122.93;25.70;;;2.70;99.90;;;;;;5017522;28;20218;-82
2023/11/30 09:10:38;;;;;;;73.43;22.47;;;2.60;99.90;;;;;;5014930;28;20216;-80
2023/11/30 09:13:07;;;;;;;51.60;16.37;;;2.60;99.90;;;;;;5015077;28;20197;-80
2023/11/30 09:15:34;;;;;;;62.70;19.57;;;2.30;99.90;;;;;;5013428;28;20198;-80
2023/11/30 09:18:01;;;;;;;61.43;18.13;;;2.10;99.90;;;;;;5015156;28;20217;-80
2023/11/30 09:20:27;;;;;;;71.77;21.07;;;2.20;99.90;;;;;;5017987;28;20273;-82
2023/11/30 09:22:53;;;;;;;73.07;21.60;;;2.00;99.90;;;;;;5018945;28;20202;-80
2023/11/30 09:25:19;;;;;;;108.27;24.13;;;2.00;99.90;;;;;;5014336;28;20174;-80
2023/11/30 09:27:45;;;;;;;65.67;20.23;;;2.00;99.90;;;;;;5013040;28;20678;-80
2023/11/30 09:30:12;;;;;;;63.73;19.70;;;1.90;99.90;;;;;;5013097;28;20186;-81
2023/11/30 09:32:38;;;;;;;97.23;24.90;;;1.80;99.90;;;;;;5013043;28;20305;-80
2023/11/30 09:35:04;;;;;;;63.03;23.97;;;1.90;99.90;;;;;;5014101;28;20253;-80
2023/11/30 09:37:30;;;;;;;62.73;23.90;;;1.90;99.90;;;;;;5012850;28;20174;-80
2023/11/30 09:39:56;;;;;;;84.40;24.53;;;2.00;99.90;;;;;;5014316;28;20665;-81
2023/11/30 09:42:24;;;;;;;76.40;22.97;;;1.90;99.90;;;;;;5012728;28;20170;-81
2023/11/30 09:44:53;;;;;;;50.37;23.40;;;2.00;99.90;;;;;;5013041;28;20608;-81
2023/11/30 09:47:21;;;;;;;59.00;21.67;;;2.00;99.90;;;;;;5012668;28;20225;-81
2023/11/30 09:49:47;;;;;;;34.10;22.70;;;2.00;99.90;;;;;;5011562;28;20182;-81
2023/11/30 09:52:12;;;;;;;53.93;22.00;;;2.10;99.90;;;;;;5012361;28;20546;-81
2023/11/30 09:54:38;;;;;;;80.60;23.83;;;2.10;99.90;;;;;;5012354;28;20281;-81
2023/11/30 09:57:04;;;;;;;48.93;22.77;;;2.00;99.90;;;;;;5016096;28;20266;-82
2023/11/30 09:59:30;;;;;;;132.63;26.90;;;2.10;99.90;;;;;;5036992;28;20182;-82
2023/11/30 10:01:59;;;;;;;74.80;24.03;;;2.10;99.90;;;;;;5022228;28;20253;-82
2023/11/30 10:04:27;;;;;;;52.67;21.37;;;2.30;99.90;;;;;;5014097;28;20293;-82
2023/11/30 10:06:55;;;;;;;52.17;21.90;;;2.40;99.90;;;;;;5012282;28;20213;-82
2023/11/30 10:09:21;;;;;;;145.83;28.03;;;2.30;99.90;;;;;;5011881;28;20201;-82
2023/11/30 10:11:47;;;;;;;67.03;22.43;;;2.40;99.90;;;;;;5011618;28;20540;-81
2023/11/30 10:14:13;;;;;;;114.53;25.87;;;2.40;99.90;;;;;;5011548;28;20261;-81
2023/11/30 10:16:40;;;;;;;48.10;24.23;;;2.50;99.90;;;;;;5017847;28;20574;-81
2023/11/30 10:19:06;;;;;;;52.13;20.20;;;2.50;99.90;;;;;;5019426;28;20225;-80
2023/11/30 10:21:31;;;;;;;346.80;40.07;;;2.50;99.90;;;;;;5029241;28;20203;-80
2023/11/30 10:23:58;;;;;;;62.03;21.43;;;2.40;99.90;;;;;;5025738;28;20656;-81
2023/11/30 10:26:27;;;;;;;59.83;23.33;;;2.40;99.90;;;;;;5015193;28;20202;-82
2023/11/30 10:28:54;;;;;;;135.60;24.93;;;2.40;99.90;;;;;;5012792;28;20192;-81
2023/11/30 10:31:23;;;;;;;76.47;25.03;;;2.30;99.90;;;;;;5012729;28;20515;-81
2023/11/30 10:33:58;;;;;;;78.07;23.33;;;2.40;99.90;;;;;;5011903;28;20248;-81
2023/11/30 10:36:28;;;;;;;99.47;25.73;;;2.40;99.90;;;;;;5013968;28;20288;-81
2023/11/30 10:39:04;;;;;;;126.53;26.77;;;2.40;99.90;;;;;;5015626;28;20660;-81
2023/11/30 10:41:52;;;;;;;72.17;23.33;;;2.60;99.90;;;;;;5015633;28;20664;-81
2023/11/30 10:44:25;;;;;;;69.07;23.53;;;2.50;99.90;;;;;;5016567;28;20171;-80
2023/11/30 10:46:59;;;;;;;50.23;21.87;;;2.40;99.90;;;;;;5016491;28;20225;-81
2023/11/30 10:49:26;;;;;;;53.03;22.43;;;2.30;99.90;;;;;;5016447;28;20656;-80
2023/11/30 10:51:53;;;;;;;48.37;23.13;;;2.50;99.90;;;;;;5015945;28;20521;-81
2023/11/30 10:54:42;;;;;;;48.97;20.33;;;2.50;99.90;;;;;;5015092;28;20621;-82
2023/11/30 10:57:07;;;;;;;44.43;21.43;;;2.60;99.90;;;;;;5015769;28;20741;-82
2023/11/30 10:59:33;;;;;;;36.80;19.60;;;2.60;99.90;;;;;;5016477;28;20170;-82
2023/11/30 11:02:01;;;;;;;40.90;23.23;;;2.60;99.90;;;;;;5014129;28;20190;-82
2023/11/30 11:04:27;;;;;;;41.33;22.50;;;2.80;99.90;;;;;;5015088;28;20178;-82
2023/11/30 11:07:05;;;;;;;41.83;22.50;;;2.70;99.90;;;;;;5017498;28;20571;-82
2023/11/30 11:09:50;;;;;;;37.90;21.63;;;2.80;99.90;;;;;;5015254;28;20244;-82
2023/11/30 11:12:32;;;;;;;35.73;21.33;;;2.90;99.90;;;;;;5016184;28;20512;-81
2023/11/30 11:15:09;;;;;;;50.23;22.93;;;3.00;99.90;;;;;;5016053;28;20170;-81
2023/11/30 11:17:46;;;;;;;39.80;22.77;;;3.00;99.90;;;;;;5015134;28;20233;-82
2023/11/30 11:20:22;;;;;;;45.77;20.27;;;3.10;99.90;;;;;;5014817;28;20193;-81
2023/11/30 11:22:48;;;;;;;35.90;20.93;;;3.10;99.90;;;;;;5017302;28;20170;-81
2023/11/30 11:25:16;;;;;;;38.27;21.73;;;3.10;99.90;;;;;;5017236;28;20171;-82
2023/11/30 11:27:42;;;;;;;35.17;22.03;;;3.10;99.90;;;;;;5015603;28;20300;-82
2023/11/30 11:30:08;;;;;;;42.03;22.73;;;3.20;99.90;;;;;;5014875;28;20206;-82
2023/11/30 11:32:39;;;;;;;38.70;21.73;;;3.10;99.90;;;;;;5014913;28;20197;-81
2023/11/30 11:35:06;;;;;;;37.03;21.03;;;3.10;99.90;;;;;;5015945;28;20254;-80
2023/11/30 11:37:32;;;;;;;34.47;21.20;;;3.10;99.90;;;;;;5015194;28;20170;-81
2023/11/30 11:39:57;;;;;;;37.10;22.37;;;3.00;99.90;;;;;;5017467;28;20174;-81
2023/11/30 11:42:23;;;;;;;39.93;23.10;;;3.10;99.90;;;;;;5019224;28;20180;-83
2023/11/30 11:44:50;;;;;;;42.13;23.20;;;3.20;99.90;;;;;;5023256;28;20170;-83
2023/11/30 11:47:16;;;;;;;41.20;21.97;;;3.30;99.90;;;;;;5021788;28;20206;-82
2023/11/30 11:49:42;;;;;;;38.43;21.43;;;3.20;99.90;;;;;;5017618;28;20262;-82
2023/11/30 11:52:09;;;;;;;45.93;23.03;;;3.00;99.90;;;;;;5025534;28;20176;-81
2023/11/30 11:54:35;;;;;;;48.30;24.00;;;3.20;99.90;;;;;;5028245;28;20162;-81
2023/11/30 11:57:02;;;;;;;37.60;22.83;;;3.10;99.90;;;;;;5022879;28;20189;-81
2023/11/30 11:59:29;;;;;;;43.23;23.93;;;3.00;99.90;;;;;;5013699;28;20498;-81
2023/11/30 12:01:57;;;;;;;40.57;22.27;;;3.10;99.90;;;;;;5013606;28;20638;-82
2023/11/30 12:04:30;;;;;;;39.77;21.43;;;3.10;99.90;;;;;;5014083;28;20638;-81
2023/11/30 12:06:57;;;;;;;42.37;24.47;;;3.00;99.90;;;;;;5013848;28;20202;-82
2023/11/30 12:09:23;;;;;;;47.43;24.47;;;3.10;99.90;;;;;;5014280;28;20228;-81
2023/11/30 12:11:51;;;;;;;44.17;23.03;;;3.30;99.90;;;;;;5016566;28;20625;-81
2023/11/30 12:14:20;;;;;;;44.17;24.20;;;3.30;99.90;;;;;;5025429;28;20198;-83
2023/11/30 12:16:46;;;;;;;40.13;22.87;;;3.30;99.90;;;;;;5035116;28;20170;-81
2023/11/30 12:19:12;;;;;;;48.13;25.20;;;3.40;99.90;;;;;;5018230;28;20256;-81
2023/11/30 12:21:39;;;;;;;49.77;24.60;;;3.40;99.90;;;;;;5017827;28;20147;-82
2023/11/30 12:24:06;;;;;;;40.60;22.47;;;3.50;99.90;;;;;;5018150;28;20181;-81
2023/11/30 12:26:31;;;;;;;44.23;22.87;;;3.40;99.90;;;;;;5023591;28;20217;-82
2023/11/30 12:28:58;;;;;;;42.00;24.37;;;3.40;99.90;;;;;;5023744;28;20205;-81
2023/11/30 12:31:25;;;;;;;42.13;22.20;;;3.30;99.90;;;;;;5023982;28;20170;-81
2023/11/30 12:33:51;;;;;;;49.47;23.33;;;3.30;99.90;;;;;;5022219;28;20177;-82